createdAt,value
2023-03-05T00:00:19.745Z,6.40
2023-03-05T00:02:51.859Z,6.40
2023-03-05T00:05:22.125Z,6.30
2023-03-05T00:07:56.998Z,6.30
2023-03-05T00:10:28.665Z,6.40
2023-03-05T00:13:08.940Z,6.50
2023-03-05T00:15:44.214Z,6.40
2023-03-05T00:18:21.474Z,6.30
2023-03-05T00:20:54.665Z,6.50
2023-03-05T00:23:28.765Z,6.30
2023-03-05T00:26:03.645Z,6.30
2023-03-05T00:28:41.071Z,6.40
2023-03-05T00:31:11.722Z,6.30
2023-03-05T00:33:53.078Z,6.20
2023-03-05T00:36:31.327Z,6.30
2023-03-05T00:39:02.292Z,6.30
2023-03-05T00:41:38.048Z,6.40
2023-03-05T00:44:13.417Z,6.30
2023-03-05T00:46:44.330Z,6.30
2023-03-05T00:49:15.773Z,6.00
2023-03-05T00:51:49.185Z,6.10
2023-03-05T00:54:20.691Z,6.20
2023-03-05T00:56:54.712Z,6.10
2023-03-05T00:59:33.082Z,6.10
2023-03-05T01:02:11.001Z,6.00
2023-03-05T01:04:45.848Z,6.00
2023-03-05T01:07:25.090Z,6.20
2023-03-05T01:10:00.117Z,6.10
2023-03-05T01:12:40.752Z,6.00
2023-03-05T01:15:21.166Z,6.20
2023-03-05T01:17:59.225Z,5.90
2023-03-05T01:20:28.823Z,6.00
2023-03-05T01:23:03.046Z,5.90
2023-03-05T01:25:35.517Z,6.10
2023-03-05T01:28:12.343Z,6.00
2023-03-05T01:30:48.250Z,6.00
2023-03-05T01:33:20.501Z,5.90
2023-03-05T01:35:55.852Z,6.10
2023-03-05T01:38:33.380Z,6.10
2023-03-05T01:41:04.061Z,6.20
2023-03-05T01:43:39.357Z,6.10
2023-03-05T01:46:38.415Z,6.20
2023-03-05T01:49:23.937Z,6.10
2023-03-05T01:52:06.333Z,6.10
2023-03-05T01:54:42.864Z,6.00
2023-03-05T01:57:16.852Z,6.00
2023-03-05T01:59:55.035Z,5.90
2023-03-05T02:02:28.032Z,5.90
2023-03-05T02:05:05.244Z,6.10
2023-03-05T02:07:40.124Z,6.00
2023-03-05T02:10:20.088Z,5.90
2023-03-05T02:12:59.078Z,5.70
2023-03-05T02:15:30.696Z,5.90
2023-03-05T02:18:09.046Z,5.90
2023-03-05T02:20:46.927Z,5.90
2023-03-05T02:23:20.993Z,5.90
2023-03-05T02:25:58.525Z,5.90
2023-03-05T02:28:34.238Z,5.70
2023-03-05T02:31:16.564Z,5.70
2023-03-05T02:33:47.835Z,5.70
2023-03-05T02:36:23.445Z,5.80
2023-03-05T02:38:59.939Z,5.70
2023-03-05T02:41:33.316Z,5.70
2023-03-05T02:44:04.165Z,5.80
2023-03-05T02:46:45.276Z,5.80
2023-03-05T02:49:17.464Z,5.90
2023-03-05T02:51:50.018Z,5.70
2023-03-05T02:54:24.605Z,5.70
2023-03-05T02:56:56.854Z,5.80
2023-03-05T02:59:29.999Z,5.70
2023-03-05T03:02:04.583Z,5.80
2023-03-05T03:04:40.334Z,5.80
2023-03-05T03:07:12.501Z,5.80
2023-03-05T03:09:43.869Z,5.50
2023-03-05T03:12:17.797Z,5.70
2023-03-05T03:14:50.831Z,5.70
2023-03-05T03:17:25.492Z,5.70
2023-03-05T03:20:03.161Z,5.70
2023-03-05T03:22:32.392Z,5.60
2023-03-05T03:25:04.925Z,5.60
2023-03-05T03:27:36.273Z,5.60
2023-03-05T03:30:13.931Z,5.70
2023-03-05T03:32:48.683Z,5.80
2023-03-05T03:35:25.081Z,5.70
2023-03-05T03:38:06.172Z,5.60
2023-03-05T03:40:40.878Z,5.40
2023-03-05T03:43:12.707Z,5.60
2023-03-05T03:45:46.603Z,5.70
2023-03-05T03:48:20.655Z,5.80
2023-03-05T03:50:53.521Z,5.70
2023-03-05T03:53:29.730Z,5.60
2023-03-05T03:56:08.742Z,5.60
2023-03-05T03:58:38.801Z,5.70
2023-03-05T04:01:12.789Z,5.60
2023-03-05T04:03:45.686Z,5.50
2023-03-05T04:06:20.876Z,5.70
2023-03-05T04:08:55.649Z,5.70
2023-03-05T04:11:31.541Z,5.60
2023-03-05T04:14:07.212Z,5.40
2023-03-05T04:16:40.219Z,5.60
2023-03-05T04:19:15.180Z,5.60
2023-03-05T04:21:46.195Z,5.50
2023-03-05T04:24:18.785Z,5.70
2023-03-05T04:26:53.534Z,5.70
2023-03-05T04:29:23.522Z,5.50
2023-03-05T04:31:52.966Z,5.50
2023-03-05T04:34:22.950Z,5.60
2023-03-05T04:37:00.817Z,5.60
2023-03-05T04:39:33.451Z,5.60
2023-03-05T04:42:10.577Z,5.40
2023-03-05T04:44:45.849Z,5.50
2023-03-05T04:47:18.202Z,5.50
2023-03-05T04:49:49.712Z,5.60
2023-03-05T04:52:27.885Z,5.50
2023-03-05T04:54:57.216Z,5.70
2023-03-05T04:57:32.933Z,5.50
2023-03-05T05:00:15.090Z,5.50
2023-03-05T05:02:48.518Z,5.60
2023-03-05T05:05:29.600Z,5.60
2023-03-05T05:08:00.091Z,5.40
2023-03-05T05:10:29.157Z,5.40
2023-03-05T05:13:06.417Z,5.60
2023-03-05T05:15:43.274Z,5.40
2023-03-05T05:18:13.355Z,5.30
2023-03-05T05:20:46.200Z,5.60
2023-03-05T05:23:21.459Z,5.40
2023-03-05T05:25:59.686Z,5.60
2023-03-05T05:28:38.347Z,5.50
2023-03-05T05:31:11.391Z,5.50
2023-03-05T05:33:49.810Z,5.50
2023-03-05T05:36:22.525Z,5.70
2023-03-05T05:39:03.437Z,5.60
2023-03-05T05:41:35.409Z,5.30
2023-03-05T05:44:09.213Z,5.70
2023-03-05T05:46:43.116Z,5.60
2023-03-05T05:49:15.108Z,5.70
2023-03-05T05:51:51.775Z,5.50
2023-03-05T05:54:26.725Z,5.50
2023-03-05T05:56:56.795Z,5.30
2023-03-05T05:59:33.710Z,5.40
2023-03-05T06:02:08.030Z,5.50
2023-03-05T06:04:42.606Z,5.40
2023-03-05T06:07:14.477Z,5.40
2023-03-05T06:09:45.757Z,5.40
2023-03-05T06:12:23.258Z,5.50
2023-03-05T06:14:58.513Z,5.50
2023-03-05T06:17:32.651Z,5.50
2023-03-05T06:20:01.849Z,5.50
2023-03-05T06:22:37.525Z,5.40
2023-03-05T06:25:17.771Z,5.50
2023-03-05T06:27:52.707Z,5.50
2023-03-05T06:30:27.702Z,5.40
2023-03-05T06:32:59.676Z,5.40
2023-03-05T06:35:32.133Z,5.50
2023-03-05T06:38:02.376Z,5.40
2023-03-05T06:40:40.387Z,5.50
2023-03-05T06:43:09.709Z,5.60
2023-03-05T06:45:44.259Z,5.50
2023-03-05T06:48:19.626Z,5.50
2023-03-05T06:50:53.332Z,5.40
2023-03-05T06:53:28.204Z,5.50
2023-03-05T06:55:58.645Z,5.40
2023-03-05T06:58:35.146Z,5.50
2023-03-05T07:01:07.852Z,5.60
2023-03-05T07:03:41.229Z,5.60
2023-03-05T07:06:16.806Z,5.50
2023-03-05T07:08:47.964Z,5.40
2023-03-05T07:11:19.216Z,5.50
2023-03-05T07:13:52.905Z,5.50
2023-03-05T07:16:27.796Z,5.40
2023-03-05T07:19:07.555Z,5.60
2023-03-05T07:21:39.760Z,5.60
2023-03-05T07:24:10.112Z,5.50
2023-03-05T07:26:39.499Z,5.60
2023-03-05T07:29:08.636Z,5.70
2023-03-05T07:31:49.636Z,5.70
2023-03-05T07:34:26.142Z,5.70
2023-03-05T07:37:00.911Z,5.70
2023-03-05T07:39:39.772Z,5.70
2023-03-05T07:42:17.646Z,5.70
2023-03-05T07:44:52.239Z,5.80
2023-03-05T07:47:27.307Z,5.80
2023-03-05T07:49:58.324Z,5.70
2023-03-05T07:52:34.493Z,5.90
2023-03-05T07:55:13.255Z,6.00
2023-03-05T07:57:43.960Z,6.20
2023-03-05T08:00:21.488Z,5.90
2023-03-05T08:02:54.509Z,6.00
2023-03-05T08:05:27.777Z,6.10
2023-03-05T08:08:01.561Z,6.20
2023-03-05T08:10:34.135Z,6.10
2023-03-05T08:13:06.942Z,6.10
2023-03-05T08:15:42.217Z,6.20
2023-03-05T08:18:19.294Z,6.00
2023-03-05T08:20:52.895Z,6.20
2023-03-05T08:23:34.426Z,6.20
2023-03-05T08:26:13.503Z,6.30
2023-03-05T08:28:48.046Z,6.20
2023-03-05T08:31:25.913Z,6.20
2023-03-05T08:34:02.170Z,6.20
2023-03-05T08:36:31.696Z,6.30
2023-03-05T08:39:03.801Z,6.40
2023-03-05T08:41:39.106Z,6.20
2023-03-05T08:44:11.888Z,6.40
2023-03-05T08:46:42.237Z,6.40
2023-03-05T08:49:15.294Z,6.40
2023-03-05T08:51:49.920Z,6.50
2023-03-05T08:54:23.185Z,6.40
2023-03-05T08:56:54.649Z,6.50
2023-03-05T08:59:28.735Z,6.60
2023-03-05T09:02:05.368Z,6.60
2023-03-05T09:04:39.883Z,6.60
2023-03-05T09:07:17.116Z,6.50
2023-03-05T09:09:48.161Z,6.80
2023-03-05T09:12:27.673Z,6.60
2023-03-05T09:14:58.184Z,6.70
2023-03-05T09:17:31.709Z,6.80
2023-03-05T09:20:09.035Z,6.80
2023-03-05T09:22:40.084Z,6.80
2023-03-05T09:25:13.212Z,6.80
2023-03-05T09:27:43.765Z,6.70
2023-03-05T09:30:22.626Z,6.70
2023-03-05T09:32:52.088Z,6.70
2023-03-05T09:35:31.530Z,6.80
2023-03-05T09:38:11.503Z,6.90
2023-03-05T09:44:18.827Z,6.80
2023-03-05T09:46:53.379Z,6.70
2023-03-05T09:49:39.896Z,6.90
2023-03-05T09:52:37.973Z,6.60
2023-03-05T09:55:27.509Z,6.70
2023-03-05T09:58:06.964Z,6.70
2023-03-05T10:00:42.065Z,6.70
2023-03-05T10:03:21.010Z,6.70
2023-03-05T10:06:05.004Z,6.70
2023-03-05T10:08:54.469Z,6.70
2023-03-05T10:11:44.825Z,6.90
2023-03-05T10:14:25.682Z,6.90
2023-03-05T10:17:35.560Z,6.90
2023-03-05T10:20:28.726Z,7.10
2023-03-05T10:23:20.698Z,7.30
2023-03-05T10:26:04.102Z,7.30
2023-03-05T10:28:49.896Z,7.50
2023-03-05T10:31:40.191Z,7.60
2023-03-05T10:34:44.928Z,7.70
2023-03-05T10:37:41.929Z,7.70
2023-03-05T10:40:30.295Z,7.80
2023-03-05T10:43:25.174Z,7.90
2023-03-05T10:46:02.875Z,7.90
2023-03-05T10:48:46.449Z,7.90
2023-03-05T10:51:35.343Z,7.80
2023-03-05T10:54:21.427Z,7.80
2023-03-05T10:57:09.905Z,7.70
2023-03-05T10:59:50.288Z,7.70
2023-03-05T11:02:22.606Z,7.80
2023-03-05T11:05:03.637Z,7.80
2023-03-05T11:07:38.830Z,7.90
2023-03-05T11:10:22.189Z,8.00
2023-03-05T11:12:59.297Z,8.00
2023-03-05T11:15:41.621Z,8.10
2023-03-05T11:18:21.694Z,8.00
2023-03-05T11:21:07.746Z,8.10
2023-03-05T11:23:38.663Z,8.30
2023-03-05T11:26:23.936Z,8.40
2023-03-05T11:29:01.940Z,8.40
2023-03-05T11:31:39.790Z,8.40
2023-03-05T11:34:30.238Z,8.30
2023-03-05T11:37:06.789Z,8.40
2023-03-05T11:40:06.250Z,8.20
2023-03-05T11:42:39.072Z,8.20
2023-03-05T11:45:19.733Z,8.30
2023-03-05T11:47:54.692Z,8.20
2023-03-05T11:50:30.780Z,8.20
2023-03-05T11:53:10.559Z,8.40
2023-03-05T11:55:50.591Z,8.40
2023-03-05T11:58:37.248Z,8.30
2023-03-05T12:01:17.012Z,8.40
2023-03-05T12:03:50.208Z,8.30
2023-03-05T12:06:30.729Z,8.30
2023-03-05T12:09:10.645Z,8.30
2023-03-05T12:11:48.806Z,8.20
2023-03-05T12:14:27.346Z,8.20
2023-03-05T12:17:15.101Z,8.40
2023-03-05T12:19:56.651Z,8.40
2023-03-05T12:22:36.231Z,8.20
2023-03-05T12:25:30.966Z,8.30
2023-03-05T12:28:06.078Z,8.30
2023-03-05T12:30:57.921Z,8.20
2023-03-05T12:33:37.148Z,8.20
2023-03-05T12:36:37.136Z,8.10
2023-03-05T12:39:49.747Z,8.00
2023-03-05T12:42:49.249Z,8.00
2023-03-05T12:45:34.129Z,8.00
2023-03-05T12:48:42.954Z,7.80
2023-03-05T12:51:32.991Z,7.90
2023-03-05T12:54:32.297Z,7.70
2023-03-05T12:57:07.017Z,7.70
2023-03-05T12:59:52.411Z,7.70
2023-03-05T13:02:35.593Z,7.80
2023-03-05T13:05:21.759Z,7.50
2023-03-05T13:08:16.065Z,7.60
2023-03-05T13:10:58.853Z,7.60
2023-03-05T13:13:38.334Z,7.50
2023-03-05T13:16:23.217Z,7.70
2023-03-05T13:19:03.233Z,7.40
2023-03-05T13:21:42.057Z,7.60
2023-03-05T13:24:18.975Z,7.60
2023-03-05T13:26:52.188Z,7.70
2023-03-05T13:29:30.745Z,7.70
2023-03-05T13:32:25.043Z,7.70
2023-03-05T13:35:03.972Z,7.70
2023-03-05T13:37:39.018Z,7.60
2023-03-05T13:40:21.552Z,7.50
2023-03-05T13:43:13.650Z,7.40
2023-03-05T13:45:56.461Z,7.10
2023-03-05T13:48:35.348Z,7.10
2023-03-05T13:51:19.249Z,7.00
2023-03-05T13:53:52.856Z,7.00
2023-03-05T13:56:36.386Z,7.10
2023-03-05T13:59:21.650Z,6.90
2023-03-05T14:01:59.518Z,7.20
2023-03-05T14:04:44.597Z,7.10
2023-03-05T14:07:31.918Z,7.10
2023-03-05T14:10:30.439Z,7.20
2023-03-05T14:13:05.842Z,7.10
2023-03-05T14:15:42.497Z,7.40
2023-03-05T14:18:21.080Z,7.40
2023-03-05T14:21:07.619Z,7.30
2023-03-05T14:23:43.976Z,7.50
2023-03-05T14:26:28.737Z,7.50
2023-03-05T14:29:05.180Z,7.60
2023-03-05T14:31:53.040Z,7.40
2023-03-05T14:34:38.417Z,7.50
2023-03-05T14:37:22.858Z,7.50
2023-03-05T14:40:05.500Z,7.50
2023-03-05T14:42:39.458Z,7.50
2023-03-05T14:45:29.704Z,7.40
2023-03-05T14:48:06.809Z,7.40
2023-03-05T14:50:38.959Z,7.40
2023-03-05T14:53:18.689Z,7.50
2023-03-05T14:55:56.596Z,7.50
2023-03-05T14:58:35.501Z,7.30
2023-03-05T15:01:07.496Z,7.50
2023-03-05T15:03:44.798Z,7.50
2023-03-05T15:06:26.296Z,7.60
2023-03-05T15:09:08.177Z,7.50
2023-03-05T15:11:37.884Z,7.50
2023-03-05T15:14:13.418Z,7.60
2023-03-05T15:16:49.281Z,7.50
2023-03-05T15:19:22.137Z,7.50
2023-03-05T15:22:00.579Z,7.50
2023-03-05T15:24:45.321Z,7.50
2023-03-05T15:27:22.431Z,7.40
2023-03-05T15:29:56.566Z,7.50
2023-03-05T15:32:32.831Z,7.40
2023-03-05T15:35:05.366Z,7.50
2023-03-05T15:37:41.942Z,7.70
2023-03-05T15:40:19.496Z,7.60
2023-03-05T15:43:01.947Z,7.50
2023-03-05T15:45:36.869Z,7.60
2023-03-05T15:48:24.714Z,7.50
2023-03-05T15:51:01.807Z,7.60
2023-03-05T15:53:37.795Z,7.50
2023-03-05T15:56:17.508Z,7.60
2023-03-05T15:58:55.659Z,7.60
2023-03-05T16:01:29.008Z,7.40
2023-03-05T16:04:17.826Z,7.40
2023-03-05T16:07:03.024Z,7.30
2023-03-05T16:09:49.127Z,7.30
2023-03-05T16:12:27.685Z,7.10
2023-03-05T16:15:03.650Z,7.30
2023-03-05T16:18:13.977Z,7.40
2023-03-05T16:20:58.015Z,7.10
2023-03-05T16:23:41.431Z,6.90
2023-03-05T16:26:15.035Z,7.00
2023-03-05T16:28:53.528Z,7.00
2023-03-05T16:31:36.047Z,7.10
2023-03-05T16:34:09.173Z,7.10
2023-03-05T16:36:49.341Z,6.90
2023-03-05T16:39:36.346Z,7.00
2023-03-05T16:42:08.569Z,7.00
2023-03-05T16:44:47.375Z,7.00
2023-03-05T16:47:22.190Z,7.00
2023-03-05T16:50:09.569Z,7.00
2023-03-05T16:52:57.374Z,7.00
2023-03-05T16:55:33.396Z,6.90
2023-03-05T16:58:13.833Z,7.00
2023-03-05T17:00:52.721Z,7.10
2023-03-05T17:03:34.780Z,6.80
2023-03-05T17:06:17.246Z,7.00
2023-03-05T17:08:49.134Z,7.00
2023-03-05T17:11:20.707Z,7.10
2023-03-05T17:13:50.203Z,7.00
2023-03-05T17:16:20.203Z,6.90
2023-03-05T17:18:49.338Z,6.90
2023-03-05T17:21:18.390Z,7.00
2023-03-05T17:23:47.084Z,6.80
2023-03-05T17:26:19.790Z,6.80
2023-03-05T17:28:54.401Z,6.70
2023-03-05T17:31:28.186Z,6.80
2023-03-05T17:33:57.284Z,6.60
2023-03-05T17:36:26.456Z,6.70
2023-03-05T17:38:55.389Z,6.70
2023-03-05T17:41:25.873Z,6.80
2023-03-05T17:43:54.408Z,6.60
2023-03-05T17:46:22.808Z,6.70
2023-03-05T17:48:51.363Z,6.70
2023-03-05T17:51:19.815Z,6.70
2023-03-05T17:53:48.538Z,6.70
2023-03-05T17:56:20.325Z,6.70
2023-03-05T17:58:50.068Z,6.60
2023-03-05T18:01:27.947Z,6.50
2023-03-05T18:03:57.592Z,6.50
2023-03-05T18:06:27.105Z,6.40
2023-03-05T18:09:00.669Z,6.50
2023-03-05T18:11:30.652Z,6.50
2023-03-05T18:14:00.332Z,6.40
2023-03-05T18:16:29.037Z,6.60
2023-03-05T18:18:57.833Z,6.60
2023-03-05T18:21:28.069Z,6.40
2023-03-05T18:23:56.666Z,6.50
2023-03-05T18:26:25.094Z,6.60
2023-03-05T18:28:53.361Z,6.50
2023-03-05T18:31:23.100Z,6.60
2023-03-05T18:33:51.744Z,6.60
2023-03-05T18:36:20.386Z,6.40
2023-03-05T18:38:48.785Z,6.50
2023-03-05T18:41:21.441Z,6.50
2023-03-05T18:43:50.618Z,6.50
2023-03-05T18:46:19.731Z,6.40
2023-03-05T18:48:49.529Z,6.40
2023-03-05T18:51:21.533Z,6.50
2023-03-05T18:53:52.021Z,6.40
2023-03-05T18:56:20.368Z,6.40
2023-03-05T18:58:48.957Z,6.30
2023-03-05T19:01:19.740Z,6.60
2023-03-05T19:03:50.037Z,6.50
2023-03-05T19:06:18.647Z,6.30
2023-03-05T19:08:50.725Z,6.50
2023-03-05T19:11:20.975Z,6.30
2023-03-05T19:13:50.486Z,6.30
2023-03-05T19:16:20.948Z,6.30
2023-03-05T19:18:59.858Z,6.40
2023-03-05T19:21:29.856Z,6.40
2023-03-05T19:24:00.053Z,6.40
2023-03-05T19:26:28.613Z,6.20
2023-03-05T19:28:57.415Z,6.40
2023-03-05T19:31:25.753Z,6.30
2023-03-05T19:33:56.850Z,6.40
2023-03-05T19:36:25.444Z,6.50
2023-03-05T19:38:54.090Z,6.40
2023-03-05T19:41:22.694Z,6.40
2023-03-05T19:43:52.088Z,6.20
2023-03-05T19:46:20.864Z,6.40
2023-03-05T19:48:52.922Z,6.20
2023-03-05T19:51:24.963Z,6.20
2023-03-05T19:53:55.149Z,6.10
2023-03-05T19:56:23.730Z,6.20
2023-03-05T19:58:55.159Z,6.10
2023-03-05T20:01:26.290Z,6.10
2023-03-05T20:03:56.685Z,6.10
2023-03-05T20:06:31.406Z,6.00
2023-03-05T20:09:01.893Z,6.00
2023-03-05T20:11:31.414Z,6.00
2023-03-05T20:14:00.851Z,5.90
2023-03-05T20:19:17.940Z,5.90
2023-03-05T20:21:48.156Z,6.00
2023-03-05T20:24:19.325Z,5.90
2023-03-05T20:26:49.228Z,5.70
2023-03-05T20:29:21.805Z,5.80
2023-03-05T20:31:56.722Z,5.80
2023-03-05T20:34:27.462Z,5.70
2023-03-05T20:36:59.275Z,5.80
2023-03-05T20:39:28.966Z,5.70
2023-03-05T20:42:01.316Z,5.70
2023-03-05T20:44:31.782Z,5.50
2023-03-05T20:47:16.421Z,5.70
2023-03-05T20:49:45.750Z,5.60
2023-03-05T20:52:17.113Z,5.40
2023-03-05T20:54:47.937Z,5.40
2023-03-05T20:57:16.314Z,5.40
2023-03-05T20:59:48.198Z,5.50
2023-03-05T21:02:18.496Z,5.30
2023-03-05T21:04:47.183Z,5.40
2023-03-05T21:07:17.026Z,5.30
2023-03-05T21:09:46.224Z,5.40
2023-03-05T21:12:14.725Z,5.20
2023-03-05T21:14:43.308Z,5.30
2023-03-05T21:17:12.600Z,5.30
2023-03-05T21:19:42.214Z,5.30
2023-03-05T21:22:10.711Z,5.30
2023-03-05T21:24:53.839Z,5.40
2023-03-05T21:27:23.299Z,5.30
2023-03-05T21:29:52.291Z,5.50
2023-03-05T21:32:21.178Z,5.30
2023-03-05T21:34:49.393Z,5.40
2023-03-05T21:37:17.694Z,5.30
2023-03-05T21:39:47.336Z,5.40
2023-03-05T21:42:15.837Z,5.40
2023-03-05T21:44:44.001Z,5.30
2023-03-05T21:47:12.261Z,5.40
2023-03-05T21:49:40.419Z,5.50
2023-03-05T21:52:11.714Z,5.40
2023-03-05T21:54:40.524Z,5.40
2023-03-05T21:57:12.137Z,5.30
2023-03-05T21:59:41.780Z,5.40
2023-03-05T22:02:12.763Z,5.20
2023-03-05T22:04:41.295Z,5.40
2023-03-05T22:07:10.198Z,5.30
2023-03-05T22:09:38.419Z,5.50
2023-03-05T22:12:10.214Z,5.20
2023-03-05T22:14:39.804Z,5.20
2023-03-05T22:17:08.293Z,5.40
2023-03-05T22:19:36.829Z,5.40
2023-03-05T22:22:05.494Z,5.40
2023-03-05T22:24:33.684Z,5.40
2023-03-05T22:27:02.446Z,5.20
2023-03-05T22:29:30.634Z,5.20
2023-03-05T22:32:00.435Z,5.30
2023-03-05T22:34:28.915Z,5.30
2023-03-05T22:36:58.079Z,5.50
2023-03-05T22:39:27.049Z,5.30
2023-03-05T22:41:55.355Z,5.20
2023-03-05T22:44:25.137Z,5.30
2023-03-05T22:46:53.431Z,5.20
2023-03-05T22:49:23.087Z,5.40
2023-03-05T22:51:51.584Z,5.40
2023-03-05T22:54:19.761Z,5.30
2023-03-05T22:56:48.258Z,5.30
2023-03-05T22:59:16.369Z,5.20
2023-03-05T23:01:45.216Z,5.20
2023-03-05T23:04:28.989Z,5.20
2023-03-05T23:06:58.871Z,5.50
2023-03-05T23:09:27.137Z,5.30
2023-03-05T23:11:55.723Z,5.30
2023-03-05T23:14:24.351Z,5.40
2023-03-05T23:16:52.606Z,5.20
2023-03-05T23:19:20.887Z,5.40
2023-03-05T23:21:49.089Z,5.50
2023-03-05T23:24:18.820Z,5.40
2023-03-05T23:26:47.038Z,5.40
2023-03-05T23:29:15.459Z,5.30
2023-03-05T23:31:43.640Z,5.40
2023-03-05T23:34:11.944Z,5.40
2023-03-05T23:37:08.093Z,5.30
2023-03-05T23:39:37.865Z,5.20
2023-03-05T23:42:06.274Z,5.30
2023-03-05T23:44:41.229Z,5.20
2023-03-05T23:47:10.337Z,5.40
2023-03-05T23:49:38.729Z,5.20
2023-03-05T23:52:08.274Z,5.40
2023-03-05T23:54:38.129Z,5.40
2023-03-05T23:57:06.316Z,5.20
2023-03-05T23:59:35.878Z,5.40
